Aguado, Philippines

12:53 PM +08 on April 28, 2017 (GMT +0800)
San Pedro | | Change Station

Elev 600 ft 14.35 °N, 121.02 °E | Updated 2 seconds ago

Rain
Rain
90.1 °F
Feels Like 98 °F
N
12.1
Wind Variable Wind from SE
Gusts 15.0 mph

Today
High -- | Low -- °F
--% Chance of Precip.
Yesterday
High -- | Low -- °F
Precip. -- in
Pressure 29.83 in
Visibility 5.6 miles
Clouds Few 2300 ft
Heat Index 98 °F
Dew Point 73 °F
Humidity 57%
Rainfall 0.06 in
Snow Depth Not available.
5:35 AM 6:12 PM
Waxing Crescent, 4% visible
METAR RPLL 280400Z 29010KT 260V330 9000 FEW023 32/24 Q1010 NOSIG RMK A2983
Pressure 29.83 in
Visibility 5.6 miles
Clouds Few 2300 ft
Heat Index 98 °F
Dew Point 73 °F
Humidity 57%
Rainfall 0.06 in
Snow Depth Not available.
5:35 AM 6:12 PM
Waxing Crescent, 4% visible
METAR RPLL 280400Z 29010KT 260V330 9000 FEW023 32/24 Q1010 NOSIG RMK A2983

Get Severe Weather Alerts

Thanks for signing up!

Be on the lookout for a verification email in your inbox.

You'll start receiving the daily forecast at 8 AM.

×

10-Day Weather Forecast

No radar image for this location.
×

Almanac

Astronomy

Apr. 28, 2017 Rise Set
Actual Time
Civil Twilight
Nautical Twilight
Astronomical Twilight
Moon
Length of Visible Light
Length of Day
Tomorrow will be .
, % of the Moon is Illuminated

Today's Extremes

Country Highs Country Lows

Community

WunderPhotos

WunderBlog® & News

Nearby

Air Quality

  Air Quality AQ Index Pollutant
Not available.

Snow Depth

Station Depth Elevation

Earthquake Activity

City Distance Mag. Time & Date
Minimum magnitude displayed is 2.5.

Coastal Water Temperatures

Place Temperature

Stations

Nearby Weather Stations

Station Location Temp. Windchill Dew Point Humidity Wind Precip. Elev Updated Type